Current Conditions - Area Ports

 

CYWH - Victoria Harbour, British Columbia, Canada
Distance from station: WSW 10km
Updated: 12/13/2018 9:00pm
NOT Current
Overcast
Overcast
 Wind from NNW
Wind: NNW 9 km/h
Temperature: 8°C
Wind Chill: 6°C
Dew Point: 7°C
Humidity: 93%
Barometer: 1009.1 hPa
Clouds: Overcast
Visibility: 24 km
Cloud details: Few Clouds 366 m
Mostly cloudy 1829 m
Overcast 3658 m
2018/12/14 05:00 CYWH 140500Z 33005KT 15SM FEW012 BKN060 OVC120 08/07 A2980 RMK SC1SC5AC2 LAST STFD OBS/NEXT 141400 UTC PRESFR SLP093
KFHR - Friday Harbor, Washington, USA
Distance from station: ENE 19km
Updated: 12/14/2018 3:53am
Clear
Clear
 Wind from SSE
Wind: SSE 26 km/h, Gust: 39 km/h
Temperature: 12°C
Dew Point: 1°C
Humidity: 47%
Barometer: 1004.4 hPa
Clouds: Clear
Visibility: 16 km
2018/12/14 11:53 KFHR 141153Z AUTO 15014G21KT 10SM CLR 12/01 A2966 RMK AO2 PK WND 13027/1113 SLP045 60000 70009 T01170011 10117 20100 56024
 
KORS - Eastsound/Orcas, Washington, USA
Distance from station: NE 38km
Updated: 12/14/2018 3:55am
Clear
Clear
 Wind from SSE
Wind: SSE 20 km/h
Temperature: 13°C
Dew Point: -1°C
Humidity: 38%
Barometer: 1004.1 hPa
Clouds: Clear
Visibility: 16 km
2018/12/14 11:55 KORS 141155Z AUTO 16011KT 10SM CLR 13/M01 A2965 RMK AO2
KNUW - Whidbey Is. Nas, Washington, USA
Distance from station: ESE 47km
Updated: 12/14/2018 3:56am
Overcast
Overcast
 Wind from SE
Wind: SE 35 km/h, Gust: 50 km/h
Temperature: 13°C
Dew Point: -1°C
Humidity: 38%
Barometer: 1006.4 hPa
Clouds: Overcast
Visibility: 16 km
Cloud details: Few Clouds 4267 m
Mostly cloudy 6096 m
Overcast 6401 m
2018/12/14 11:56 KNUW 141156Z 13019G27KT 10SM FEW140 BKN200 OVC210 13/M01 A2972 RMK AO2 PK WND 15034/1057 SLP065 70015 T01331011 10133 20122 56022 $
 
CWEZ - Saturna Isl (map, British Columbia, Canada
Distance from station: NNE 40km
Updated: 12/14/2018 4:00am

 Wind from SSE
Wind: SSE 54 km/h
Temperature: 12°C
Dew Point: 2°C
Humidity: 51%
2018/12/14 12:00 CWEZ 141200Z AUTO 15029KT 12/02 RMK AO1 6025 PK WND 16035/1144 SLP031 T01160015 50002
CYCD - Nanaimo Airport, British Columbia, Canada
Distance from station: NW 80km
Updated: 12/13/2018 9:00pm
NOT Current

 
2018/12/14 05:00 CYCD 140500Z CCA 13012G18KT 4SM -RA BR FEW006 OVC032 09/08 A2976 WS RWY16 RMK SF2SC6 LAST STFD OBS/NEXT 141400Z SLP080
 
CWVF - Sand Heads (ls), British Columbia, Canada
Distance from station: N 72km
Updated: 12/14/2018 4:00am

 Wind from E
Wind: E 39 km/h, Gust: 50 km/h
Temperature: 9°C
Wind Chill: 4°C
Dew Point: 5°C
Humidity: 76%
2018/12/14 12:00 CWVF 141200Z AUTO 09021G27KT 09/05 RMK AO1 PK WND 09027/1100 T00860049
CWQK - Race Rocks Autob, British Columbia, Canada
Distance from station: SW 26km
Updated: 12/14/2018 4:00am

 Wind from N
Wind: N 39 km/h
Temperature: 10°C
Wind Chill: 6°C
Dew Point: 5°C
Humidity: 71%
2018/12/14 12:00 CWQK 141200Z AUTO 01021KT 10/05 RMK AO1 PK WND 01025/1138 SLP027 T00980054 58023
 
CWSP - Sheringham Autob, British Columbia, Canada
Distance from station: W 49km
Updated: 12/14/2018 4:00am

 Wind from NNE
Wind: NNE 4 km/h
Temperature: 13°C
Dew Point: 6°C
Humidity: 63%
2018/12/14 12:00 CWSP 141200Z AUTO 02002KT 13/06 RMK AO1 8021 SLP028 T01320057 50006